createdAt,value
2022-07-25T00:00:04.296Z,18.66
2022-07-25T00:03:10.786Z,18.34
2022-07-25T00:06:17.875Z,18.31
2022-07-25T00:09:20.800Z,18.17
2022-07-25T00:12:24.995Z,18.26
2022-07-25T00:15:27.810Z,18.19
2022-07-25T00:18:30.506Z,17.71
2022-07-25T00:21:33.392Z,17.41
2022-07-25T00:24:36.872Z,17.30
2022-07-25T00:27:40.982Z,17.24
2022-07-25T00:30:43.933Z,17.15
2022-07-25T00:33:46.805Z,17.22
2022-07-25T00:36:49.564Z,17.33
2022-07-25T00:39:52.623Z,17.29
2022-07-25T00:42:56.778Z,17.28
2022-07-25T00:45:59.934Z,17.11
2022-07-25T00:49:03.521Z,17.20
2022-07-25T00:52:06.746Z,17.29
2022-07-25T00:55:09.826Z,17.24
2022-07-25T00:58:14.285Z,17.29
2022-07-25T01:01:17.508Z,17.16
2022-07-25T01:04:20.383Z,16.77
2022-07-25T01:07:23.164Z,16.83
2022-07-25T01:10:25.890Z,16.98
2022-07-25T01:13:32.915Z,17.02
2022-07-25T01:16:35.644Z,17.12
2022-07-25T01:19:38.371Z,17.06
2022-07-25T01:22:42.475Z,17.03
2022-07-25T01:25:45.854Z,16.79
2022-07-25T01:28:48.540Z,16.85
2022-07-25T01:31:51.326Z,16.90
2022-07-25T01:34:54.264Z,16.75
2022-07-25T01:37:58.336Z,16.90
2022-07-25T01:41:01.149Z,16.96
2022-07-25T01:44:04.368Z,16.98
2022-07-25T01:47:07.329Z,16.83
2022-07-25T01:50:10.695Z,16.68
2022-07-25T01:53:14.762Z,17.09
2022-07-25T01:56:17.485Z,17.32
2022-07-25T01:59:23.584Z,17.38
2022-07-25T02:02:26.392Z,17.39
2022-07-25T02:05:29.128Z,17.43
2022-07-25T02:08:33.621Z,17.63
2022-07-25T02:11:36.405Z,17.73
2022-07-25T02:14:39.216Z,17.67
2022-07-25T02:17:41.946Z,17.84
2022-07-25T02:20:44.769Z,17.88
2022-07-25T02:23:49.091Z,17.81
2022-07-25T02:26:51.858Z,17.87
2022-07-25T02:29:54.622Z,17.91
2022-07-25T02:32:57.369Z,17.97
2022-07-25T02:36:00.302Z,17.98
2022-07-25T02:39:05.034Z,18.07
2022-07-25T02:42:07.968Z,18.07
2022-07-25T02:45:11.140Z,18.16
2022-07-25T02:48:13.882Z,18.29
2022-07-25T02:51:18.615Z,18.38
2022-07-25T02:54:22.701Z,18.32
2022-07-25T02:57:25.423Z,18.55
2022-07-25T03:00:29.181Z,18.58
2022-07-25T03:03:32.060Z,18.55
2022-07-25T03:06:35.117Z,18.77
2022-07-25T03:09:39.377Z,18.92
2022-07-25T03:12:42.915Z,19.03
2022-07-25T03:15:45.709Z,19.08
2022-07-25T03:18:48.402Z,19.24
2022-07-25T03:21:51.179Z,19.26
2022-07-25T03:24:55.435Z,19.28
2022-07-25T03:27:58.224Z,19.42
2022-07-25T03:31:00.986Z,19.61
2022-07-25T03:34:03.966Z,19.26
2022-07-25T03:37:06.824Z,19.29
2022-07-25T03:40:11.641Z,19.26
2022-07-25T03:43:14.429Z,19.15
2022-07-25T03:46:17.317Z,19.20
2022-07-25T03:49:20.353Z,19.48
2022-07-25T03:52:23.103Z,19.59
2022-07-25T03:55:27.197Z,19.09
2022-07-25T03:58:30.061Z,19.29
2022-07-25T04:01:33.063Z,19.55
2022-07-25T04:04:35.880Z,19.61
2022-07-25T04:07:38.853Z,19.52
2022-07-25T04:10:43.077Z,19.63
2022-07-25T04:13:45.878Z,20.01
2022-07-25T04:16:49.769Z,19.41
2022-07-25T04:19:52.592Z,19.48
2022-07-25T04:22:55.309Z,19.41
2022-07-25T04:25:59.622Z,19.36
2022-07-25T04:29:03.834Z,19.96
2022-07-25T04:32:07.274Z,19.58
2022-07-25T04:35:10.436Z,19.59
2022-07-25T04:38:13.404Z,19.68
2022-07-25T04:41:17.651Z,19.39
2022-07-25T04:44:20.441Z,19.41
2022-07-25T04:47:23.214Z,19.62
2022-07-25T04:50:25.982Z,19.85
2022-07-25T04:53:28.742Z,19.68
2022-07-25T04:56:33.054Z,19.66
2022-07-25T04:59:35.788Z,19.94
2022-07-25T05:02:38.679Z,19.99
2022-07-25T05:05:41.397Z,19.48
2022-07-25T05:08:44.153Z,19.82
2022-07-25T05:11:52.796Z,19.77
2022-07-25T05:14:58.795Z,20.16
2022-07-25T05:18:01.592Z,19.68
2022-07-25T05:21:04.564Z,19.43
2022-07-25T05:24:07.979Z,19.51
2022-07-25T05:27:12.379Z,19.60
2022-07-25T05:30:15.803Z,19.36
2022-07-25T05:33:18.675Z,19.47
2022-07-25T05:36:21.373Z,19.40
2022-07-25T05:39:24.039Z,19.53
2022-07-25T05:42:28.130Z,19.40
2022-07-25T05:45:30.978Z,19.44
2022-07-25T05:48:33.815Z,19.58
2022-07-25T05:51:36.666Z,19.90
2022-07-25T05:54:39.490Z,19.58
2022-07-25T05:57:43.587Z,19.83
2022-07-25T06:00:46.466Z,20.10
2022-07-25T06:03:49.261Z,20.24
2022-07-25T06:06:52.336Z,20.29
2022-07-25T06:09:55.110Z,20.18
2022-07-25T06:12:59.273Z,20.28
2022-07-25T06:16:03.311Z,20.41
2022-07-25T06:19:06.213Z,20.41
2022-07-25T06:22:09.442Z,20.86
2022-07-25T06:25:12.796Z,20.57
2022-07-25T06:28:18.108Z,20.27
2022-07-25T06:31:21.305Z,20.43
2022-07-25T06:34:28.481Z,20.53
2022-07-25T06:37:31.636Z,20.23
2022-07-25T06:40:34.488Z,20.19
2022-07-25T06:43:38.586Z,20.23
2022-07-25T06:46:41.528Z,19.98
2022-07-25T06:49:44.419Z,20.03
2022-07-25T06:52:47.585Z,20.23
2022-07-25T06:55:50.396Z,20.35
2022-07-25T06:58:54.789Z,20.55
2022-07-25T07:01:57.623Z,20.69
2022-07-25T07:05:00.358Z,20.66
2022-07-25T07:08:03.710Z,20.59
2022-07-25T07:11:07.492Z,20.88
2022-07-25T07:14:11.693Z,20.64
2022-07-25T07:17:14.473Z,20.74
2022-07-25T07:20:17.258Z,20.68
2022-07-25T07:23:19.966Z,20.55
2022-07-25T07:26:23.320Z,20.45
2022-07-25T07:29:28.417Z,20.31
2022-07-25T07:32:31.182Z,20.20
2022-07-25T07:35:34.826Z,20.10
2022-07-25T07:38:39.902Z,19.67
2022-07-25T07:41:43.341Z,19.12
2022-07-25T07:44:47.578Z,19.14
2022-07-25T07:47:51.391Z,19.34
2022-07-25T07:50:54.164Z,19.68
2022-07-25T07:54:14.413Z,19.82
2022-07-25T07:57:17.399Z,19.65
2022-07-25T08:00:22.133Z,19.70
2022-07-25T08:03:25.078Z,20.10
2022-07-25T08:06:28.983Z,19.98
2022-07-25T08:09:32.064Z,20.10
2022-07-25T08:12:34.853Z,19.84
2022-07-25T08:15:39.157Z,19.91
2022-07-25T08:18:42.917Z,20.02
2022-07-25T08:21:46.766Z,20.41
2022-07-25T08:24:50.052Z,19.90
2022-07-25T08:27:53.353Z,19.64
2022-07-25T08:30:58.296Z,19.98
2022-07-25T08:34:01.068Z,20.01
2022-07-25T08:37:03.776Z,19.67
2022-07-25T08:40:07.161Z,19.61
2022-07-25T08:43:12.452Z,19.59
2022-07-25T08:46:17.908Z,19.46
2022-07-25T08:49:21.311Z,19.28
2022-07-25T08:52:24.482Z,19.33
2022-07-25T08:55:28.797Z,19.56
2022-07-25T08:58:31.856Z,19.52
2022-07-25T09:01:40.002Z,19.54
2022-07-25T09:04:44.500Z,19.78
2022-07-25T09:07:47.201Z,19.48
2022-07-25T09:10:50.761Z,19.44
2022-07-25T09:13:58.749Z,21.22
2022-07-25T09:17:07.533Z,20.06
2022-07-25T09:20:27.201Z,20.11
2022-07-25T09:23:33.150Z,20.33
2022-07-25T09:26:44.431Z,21.00
2022-07-25T09:29:47.211Z,20.97
2022-07-25T09:33:02.109Z,20.97
2022-07-25T09:36:12.286Z,22.24
2022-07-25T09:39:15.574Z,21.76
2022-07-25T09:42:19.383Z,21.74
2022-07-25T09:45:22.519Z,20.79
2022-07-25T09:48:26.743Z,20.50
2022-07-25T09:51:30.513Z,20.64
2022-07-25T09:54:34.125Z,19.93
2022-07-25T09:57:36.862Z,19.77
2022-07-25T10:00:42.003Z,19.60
2022-07-25T10:03:51.485Z,19.51
2022-07-25T10:06:58.600Z,19.40
2022-07-25T10:10:01.472Z,19.55
2022-07-25T10:13:10.252Z,19.51
2022-07-25T10:16:19.184Z,19.80
2022-07-25T10:22:58.471Z,19.74
2022-07-25T10:26:08.320Z,20.15
2022-07-25T10:29:11.755Z,20.92
2022-07-25T10:32:18.651Z,20.82
2022-07-25T10:35:21.640Z,21.30
2022-07-25T10:38:29.675Z,21.74
2022-07-25T10:41:32.965Z,20.95
2022-07-25T10:44:42.972Z,21.22
2022-07-25T10:47:52.370Z,20.72
2022-07-25T10:50:59.041Z,21.26
2022-07-25T10:54:13.226Z,21.48
2022-07-25T10:57:16.804Z,21.14
2022-07-25T11:00:20.074Z,20.93
2022-07-25T11:03:24.100Z,21.04
2022-07-25T11:06:34.272Z,20.82
2022-07-25T11:09:38.637Z,20.77
2022-07-25T11:12:41.698Z,20.44
2022-07-25T11:15:45.253Z,20.57
2022-07-25T11:18:49.581Z,20.72
2022-07-25T11:21:56.021Z,20.59
2022-07-25T11:25:00.685Z,20.47
2022-07-25T11:28:04.560Z,20.65
2022-07-25T11:31:07.994Z,21.06
2022-07-25T11:34:11.348Z,20.53
2022-07-25T11:37:15.108Z,20.58
2022-07-25T11:40:20.422Z,20.68
2022-07-25T11:43:23.858Z,20.73
2022-07-25T11:46:27.410Z,20.84
2022-07-25T11:49:31.803Z,21.02
2022-07-25T11:52:35.304Z,20.77
2022-07-25T11:55:41.007Z,21.08
2022-07-25T11:58:44.382Z,20.86
2022-07-25T12:01:48.913Z,20.93
2022-07-25T12:04:55.703Z,21.33
2022-07-25T12:08:01.298Z,21.08
2022-07-25T12:11:05.535Z,21.22
2022-07-25T12:14:08.814Z,21.43
2022-07-25T12:17:11.821Z,21.59
2022-07-25T12:20:15.621Z,21.19
2022-07-25T12:23:18.825Z,21.27
2022-07-25T12:26:23.320Z,21.32
2022-07-25T12:29:26.092Z,21.37
2022-07-25T12:32:28.885Z,21.41
2022-07-25T12:35:35.061Z,21.41
2022-07-25T12:38:38.566Z,21.28
2022-07-25T12:41:43.759Z,21.10
2022-07-25T12:44:46.846Z,21.29
2022-07-25T12:47:49.594Z,21.44
2022-07-25T12:50:52.371Z,21.38
2022-07-25T12:53:56.696Z,21.45
2022-07-25T12:57:03.687Z,21.74
2022-07-25T13:00:07.319Z,21.67
2022-07-25T13:03:12.129Z,21.81
2022-07-25T13:06:17.274Z,21.58
2022-07-25T13:09:20.534Z,21.44
2022-07-25T13:12:24.858Z,21.64
2022-07-25T13:15:28.321Z,21.69
2022-07-25T13:18:31.959Z,22.42
2022-07-25T13:21:37.583Z,22.84
2022-07-25T13:24:40.354Z,22.65
2022-07-25T13:27:51.322Z,24.71
2022-07-25T13:30:54.072Z,27.97
2022-07-25T13:33:57.254Z,27.27
2022-07-25T13:36:59.970Z,27.77
2022-07-25T13:40:02.996Z,24.65
2022-07-25T13:43:07.073Z,29.27
2022-07-25T13:46:09.999Z,29.00
2022-07-25T13:49:13.048Z,26.14
2022-07-25T13:52:18.523Z,24.50
2022-07-25T13:55:21.578Z,27.98
2022-07-25T13:58:25.610Z,28.82
2022-07-25T14:01:28.780Z,27.69
2022-07-25T14:04:31.973Z,25.72
2022-07-25T14:07:35.213Z,28.78
2022-07-25T14:10:38.101Z,28.08
2022-07-25T14:13:43.596Z,29.53
2022-07-25T14:16:46.294Z,28.78
2022-07-25T14:19:49.137Z,27.37
2022-07-25T14:22:54.416Z,28.91
2022-07-25T14:25:58.699Z,28.18
2022-07-25T14:29:03.571Z,25.33
2022-07-25T14:32:07.838Z,24.04
2022-07-25T14:35:11.492Z,23.87
2022-07-25T14:38:14.753Z,22.74
2022-07-25T14:41:18.155Z,21.99
2022-07-25T14:44:22.486Z,22.42
2022-07-25T14:47:27.282Z,21.72
2022-07-25T14:50:30.475Z,22.28
2022-07-25T14:53:33.798Z,22.35
2022-07-25T14:56:36.582Z,22.33
2022-07-25T14:59:40.759Z,21.76
2022-07-25T15:02:43.703Z,22.31
2022-07-25T15:05:46.952Z,21.91
2022-07-25T15:08:53.608Z,22.22
2022-07-25T15:11:56.591Z,21.60
2022-07-25T15:15:00.691Z,21.99
2022-07-25T15:18:03.457Z,21.88
2022-07-25T15:21:06.244Z,21.06
2022-07-25T15:24:09.107Z,21.09
2022-07-25T15:27:11.815Z,21.09
2022-07-25T15:30:16.147Z,21.51
2022-07-25T15:33:19.765Z,21.34
2022-07-25T15:36:25.819Z,21.48
2022-07-25T15:39:31.738Z,21.43
2022-07-25T15:42:34.413Z,21.27
2022-07-25T15:45:40.340Z,21.78
2022-07-25T15:48:46.825Z,21.51
2022-07-25T15:51:49.803Z,20.58
2022-07-25T15:54:52.641Z,20.37
2022-07-25T15:57:55.362Z,20.93
2022-07-25T16:00:59.592Z,21.09
2022-07-25T16:04:02.563Z,20.83
2022-07-25T16:07:05.767Z,20.29
2022-07-25T16:10:09.297Z,20.67
2022-07-25T16:13:12.437Z,20.56
2022-07-25T16:16:16.690Z,20.27
2022-07-25T16:19:19.550Z,20.02
2022-07-25T16:22:22.563Z,20.02
2022-07-25T16:25:25.610Z,19.88
2022-07-25T16:28:28.367Z,19.54
2022-07-25T16:31:32.619Z,18.95
2022-07-25T16:34:38.623Z,18.86
2022-07-25T16:37:41.633Z,19.04
2022-07-25T16:40:44.547Z,18.76
2022-07-25T16:43:47.486Z,18.89
2022-07-25T16:46:51.760Z,18.81
2022-07-25T16:49:54.637Z,18.96
2022-07-25T16:52:57.447Z,19.08
2022-07-25T16:56:00.334Z,19.69
2022-07-25T16:59:03.141Z,20.25
2022-07-25T17:02:07.636Z,19.05
2022-07-25T17:05:10.721Z,18.82
2022-07-25T17:08:13.873Z,18.87
2022-07-25T17:11:16.704Z,18.82
2022-07-25T17:14:19.441Z,18.71
2022-07-25T17:17:23.982Z,18.83
2022-07-25T17:20:28.372Z,18.99
2022-07-25T17:23:31.386Z,18.90
2022-07-25T17:26:34.244Z,18.77
2022-07-25T17:29:37.441Z,18.96
2022-07-25T17:32:41.599Z,19.07
2022-07-25T17:35:45.787Z,19.03
2022-07-25T17:38:48.765Z,18.91
2022-07-25T17:41:52.854Z,19.05
2022-07-25T17:44:57.719Z,18.89
2022-07-25T17:48:03.085Z,18.72
2022-07-25T17:51:06.714Z,18.69
2022-07-25T17:54:10.359Z,18.79
2022-07-25T17:57:13.474Z,18.80
2022-07-25T18:00:16.490Z,18.71
2022-07-25T18:03:25.554Z,18.81
2022-07-25T18:06:29.988Z,19.03
2022-07-25T18:09:33.181Z,18.99
2022-07-25T18:12:36.154Z,18.91
2022-07-25T18:15:39.166Z,18.92
2022-07-25T18:18:43.396Z,18.67
2022-07-25T18:21:46.615Z,18.60
2022-07-25T18:24:49.425Z,18.59
2022-07-25T18:27:52.911Z,18.68
2022-07-25T18:30:55.990Z,18.77
2022-07-25T18:34:00.147Z,18.76
2022-07-25T18:37:02.903Z,18.86
2022-07-25T18:40:06.554Z,18.93
2022-07-25T18:43:09.319Z,19.21
2022-07-25T18:46:13.771Z,19.18
2022-07-25T18:49:18.880Z,19.14
2022-07-25T18:52:24.110Z,19.77
2022-07-25T18:55:27.135Z,19.84
2022-07-25T18:58:31.276Z,19.97
2022-07-25T19:01:34.210Z,19.95
2022-07-25T19:04:40.320Z,20.14
2022-07-25T19:07:43.266Z,20.08
2022-07-25T19:10:46.206Z,20.18
2022-07-25T19:13:51.078Z,19.96
2022-07-25T19:16:57.737Z,19.88
2022-07-25T19:20:05.681Z,19.92
2022-07-25T19:23:08.695Z,20.09
2022-07-25T19:26:11.402Z,19.83
2022-07-25T19:29:16.818Z,19.72
2022-07-25T19:32:22.506Z,19.76
2022-07-25T19:35:27.033Z,19.91
2022-07-25T19:38:29.786Z,19.27
2022-07-25T19:41:34.410Z,19.13
2022-07-25T19:44:37.858Z,19.19
2022-07-25T19:47:40.601Z,19.15
2022-07-25T19:50:45.261Z,19.09
2022-07-25T19:53:48.202Z,19.11
2022-07-25T19:56:51.505Z,19.42
2022-07-25T19:59:54.290Z,19.58
2022-07-25T20:02:57.106Z,19.57
2022-07-25T20:06:06.031Z,19.17
2022-07-25T20:09:11.184Z,19.07
2022-07-25T20:12:14.324Z,19.01
2022-07-25T20:15:17.138Z,19.59
2022-07-25T20:18:20.048Z,19.72
2022-07-25T20:21:25.814Z,19.85
2022-07-25T20:24:28.650Z,19.81
2022-07-25T20:27:31.504Z,19.73
2022-07-25T20:30:35.093Z,19.88
2022-07-25T20:33:38.678Z,18.54
2022-07-25T20:36:43.355Z,18.40
2022-07-25T20:39:46.049Z,18.35
2022-07-25T20:42:51.040Z,18.37
2022-07-25T20:45:53.898Z,18.10
2022-07-25T20:48:56.750Z,18.28
2022-07-25T20:52:01.126Z,18.17
2022-07-25T20:55:06.845Z,18.15
2022-07-25T20:58:10.234Z,18.95
2022-07-25T21:01:13.006Z,19.53
2022-07-25T21:04:16.926Z,19.62
2022-07-25T21:07:21.018Z,19.34
2022-07-25T21:10:24.080Z,18.70
2022-07-25T21:13:27.046Z,18.58
2022-07-25T21:16:35.871Z,18.49
2022-07-25T21:19:38.674Z,18.33
2022-07-25T21:22:43.183Z,18.28
2022-07-25T21:25:45.921Z,18.26
2022-07-25T21:28:48.665Z,18.20
2022-07-25T21:31:51.513Z,18.14
2022-07-25T21:34:57.034Z,18.05
2022-07-25T21:38:01.188Z,18.05
2022-07-25T21:41:03.911Z,18.04
2022-07-25T21:44:06.628Z,18.04
2022-07-25T21:47:09.508Z,18.05
2022-07-25T21:50:30.163Z,18.11
2022-07-25T21:53:35.623Z,18.19
2022-07-25T21:56:38.349Z,18.12
2022-07-25T21:59:41.208Z,18.22
2022-07-25T22:02:44.692Z,18.20
2022-07-25T22:05:47.660Z,17.98
2022-07-25T22:08:51.811Z,18.18
2022-07-25T22:11:55.097Z,18.15
2022-07-25T22:14:57.870Z,18.28
2022-07-25T22:18:00.645Z,18.04
2022-07-25T22:21:03.388Z,17.91
2022-07-25T22:24:08.198Z,17.97
2022-07-25T22:27:10.964Z,17.83
2022-07-25T22:30:19.116Z,18.00
2022-07-25T22:33:22.084Z,17.69
2022-07-25T22:36:24.796Z,17.63
2022-07-25T22:39:28.909Z,17.61
2022-07-25T22:42:31.633Z,17.46
2022-07-25T22:45:34.452Z,17.62
2022-07-25T22:48:37.480Z,17.37
2022-07-25T22:51:40.309Z,17.35
2022-07-25T22:54:44.640Z,17.46
2022-07-25T22:57:47.455Z,17.19
2022-07-25T23:00:50.412Z,17.14
2022-07-25T23:03:53.646Z,17.05
2022-07-25T23:06:56.459Z,16.93
2022-07-25T23:10:00.606Z,17.03
2022-07-25T23:13:03.516Z,16.88
2022-07-25T23:16:10.235Z,17.09
2022-07-25T23:19:13.510Z,16.95
2022-07-25T23:22:16.316Z,17.17
2022-07-25T23:25:20.498Z,16.86
2022-07-25T23:28:23.268Z,16.87
2022-07-25T23:31:26.170Z,17.05
2022-07-25T23:34:29.030Z,16.87
2022-07-25T23:40:54.146Z,16.78
2022-07-25T23:43:59.470Z,16.62
2022-07-25T23:47:02.822Z,16.45
2022-07-25T23:50:07.268Z,16.46
2022-07-25T23:53:10.071Z,16.56
2022-07-25T23:56:18.771Z,16.29
2022-07-25T23:59:23.688Z,16.44
